createdAt,value
2022-10-18T00:00:03.053Z,960.29
2022-10-18T00:00:13.060Z,960.29
2022-10-18T00:00:23.048Z,960.28
2022-10-18T00:00:33.037Z,960.29
2022-10-18T00:00:43.051Z,960.29
2022-10-18T00:00:53.056Z,960.29
2022-10-18T00:01:03.057Z,960.30
2022-10-18T00:01:13.054Z,960.30
2022-10-18T00:01:23.067Z,960.30
2022-10-18T00:01:33.056Z,960.30
2022-10-18T00:01:43.085Z,960.30
2022-10-18T00:01:53.140Z,960.29
2022-10-18T00:02:03.099Z,960.29
2022-10-18T00:02:13.096Z,960.29
2022-10-18T00:02:23.083Z,960.29
2022-10-18T00:02:33.115Z,960.29
2022-10-18T00:02:43.064Z,960.30
2022-10-18T00:02:53.065Z,960.30
2022-10-18T00:03:03.064Z,960.30
2022-10-18T00:03:13.062Z,960.30
2022-10-18T00:03:23.065Z,960.30
2022-10-18T00:03:33.115Z,960.30
2022-10-18T00:03:53.067Z,960.30
2022-10-18T00:04:03.072Z,960.30
2022-10-18T00:04:13.073Z,960.30
2022-10-18T00:04:23.071Z,960.30
2022-10-18T00:04:33.074Z,960.29
2022-10-18T00:04:43.071Z,960.29
2022-10-18T00:04:53.073Z,960.29
2022-10-18T00:05:03.073Z,960.29
2022-10-18T00:05:13.075Z,960.29
2022-10-18T00:05:23.072Z,960.29
2022-10-18T00:05:33.076Z,960.29
2022-10-18T00:05:43.076Z,960.29
2022-10-18T00:05:53.075Z,960.29
2022-10-18T00:06:03.076Z,960.29
2022-10-18T00:06:13.076Z,960.29
2022-10-18T00:06:23.081Z,960.29
2022-10-18T00:06:33.082Z,960.29
2022-10-18T00:06:43.671Z,960.29
2022-10-18T00:06:53.081Z,960.29
2022-10-18T00:07:03.088Z,960.30
2022-10-18T00:07:13.083Z,960.30
2022-10-18T00:07:23.083Z,960.30
2022-10-18T00:07:33.367Z,960.30
2022-10-18T00:07:43.086Z,960.30
2022-10-18T00:07:53.089Z,960.30
2022-10-18T00:08:03.087Z,960.30
2022-10-18T00:08:13.088Z,960.30
2022-10-18T00:08:23.088Z,960.30
2022-10-18T00:08:33.091Z,960.30
2022-10-18T00:08:43.089Z,960.30
2022-10-18T00:08:53.089Z,960.30
2022-10-18T00:09:03.091Z,960.30
2022-10-18T00:09:13.093Z,960.30
2022-10-18T00:09:23.091Z,960.30
2022-10-18T00:09:33.095Z,960.30
2022-10-18T00:09:43.097Z,960.29
2022-10-18T00:09:53.097Z,960.28
2022-10-18T00:10:03.094Z,960.28
2022-10-18T00:10:13.105Z,960.27
2022-10-18T00:10:23.094Z,960.27
2022-10-18T00:10:33.094Z,960.27
2022-10-18T00:10:43.102Z,960.27
2022-10-18T00:10:53.098Z,960.27
2022-10-18T00:11:03.101Z,960.27
2022-10-18T00:11:13.099Z,960.26
2022-10-18T00:11:23.100Z,960.26
2022-10-18T00:11:33.099Z,960.26
2022-10-18T00:11:43.098Z,960.26
2022-10-18T00:11:53.102Z,960.26
2022-10-18T00:12:03.106Z,960.25
2022-10-18T00:12:13.106Z,960.26
2022-10-18T00:12:23.104Z,960.26
2022-10-18T00:12:33.145Z,960.27
2022-10-18T00:12:43.169Z,960.26
2022-10-18T00:12:53.108Z,960.27
2022-10-18T00:13:03.109Z,960.26
2022-10-18T00:13:13.110Z,960.26
2022-10-18T00:13:23.111Z,960.25
2022-10-18T00:13:33.111Z,960.25
2022-10-18T00:13:43.112Z,960.24
2022-10-18T00:13:53.113Z,960.24
2022-10-18T00:14:03.114Z,960.25
2022-10-18T00:14:13.115Z,960.25
2022-10-18T00:14:23.114Z,960.25
2022-10-18T00:14:33.135Z,960.25
2022-10-18T00:14:43.115Z,960.25
2022-10-18T00:14:53.121Z,960.24
2022-10-18T00:15:03.121Z,960.24
2022-10-18T00:15:13.121Z,960.24
2022-10-18T00:15:23.119Z,960.23
2022-10-18T00:15:33.119Z,960.22
2022-10-18T00:15:43.123Z,960.22
2022-10-18T00:15:53.122Z,960.22
2022-10-18T00:16:03.119Z,960.22
2022-10-18T00:16:13.120Z,960.22
2022-10-18T00:16:23.134Z,960.22
2022-10-18T00:16:33.123Z,960.22
2022-10-18T00:16:43.123Z,960.22
2022-10-18T00:16:53.121Z,960.21
2022-10-18T00:17:03.123Z,960.21
2022-10-18T00:17:13.125Z,960.20
2022-10-18T00:17:23.127Z,960.20
2022-10-18T00:17:33.367Z,960.20
2022-10-18T00:17:43.127Z,960.20
2022-10-18T00:17:53.128Z,960.21
2022-10-18T00:18:03.130Z,960.20
2022-10-18T00:18:13.132Z,960.20
2022-10-18T00:18:23.115Z,960.20
2022-10-18T00:18:33.142Z,960.21
2022-10-18T00:18:43.128Z,960.21
2022-10-18T00:18:53.130Z,960.21
2022-10-18T00:19:03.550Z,960.21
2022-10-18T00:19:13.133Z,960.20
2022-10-18T00:19:25.930Z,960.20
2022-10-18T00:19:34.133Z,960.20
2022-10-18T00:19:43.134Z,960.20
2022-10-18T00:19:53.136Z,960.20
2022-10-18T00:20:03.143Z,960.20
2022-10-18T00:20:13.140Z,960.20
2022-10-18T00:20:23.121Z,960.20
2022-10-18T00:20:33.133Z,960.21
2022-10-18T00:20:43.141Z,960.21
2022-10-18T00:20:53.138Z,960.21
2022-10-18T00:21:03.141Z,960.22
2022-10-18T00:21:13.141Z,960.22
2022-10-18T00:21:23.144Z,960.23
2022-10-18T00:21:33.170Z,960.22
2022-10-18T00:21:53.145Z,960.23
2022-10-18T00:22:03.142Z,960.22
2022-10-18T00:22:13.147Z,960.22
2022-10-18T00:22:23.149Z,960.22
2022-10-18T00:22:33.441Z,960.22
2022-10-18T00:22:43.149Z,960.22
2022-10-18T00:22:53.145Z,960.22
2022-10-18T00:23:03.153Z,960.22
2022-10-18T00:23:13.149Z,960.22
2022-10-18T00:23:23.151Z,960.22
2022-10-18T00:23:33.151Z,960.22
2022-10-18T00:23:43.154Z,960.21
2022-10-18T00:23:53.151Z,960.21
2022-10-18T00:24:03.151Z,960.21
2022-10-18T00:24:13.153Z,960.21
2022-10-18T00:24:23.152Z,960.20
2022-10-18T00:24:33.153Z,960.20
2022-10-18T00:24:43.155Z,960.20
2022-10-18T00:24:53.159Z,960.20
2022-10-18T00:25:03.158Z,960.19
2022-10-18T00:25:13.161Z,960.19
2022-10-18T00:25:23.162Z,960.19
2022-10-18T00:25:33.157Z,960.20
2022-10-18T00:25:43.167Z,960.20
2022-10-18T00:25:53.160Z,960.20
2022-10-18T00:26:03.162Z,960.20
2022-10-18T00:26:13.161Z,960.20
2022-10-18T00:26:23.163Z,960.20
2022-10-18T00:26:33.148Z,960.20
2022-10-18T00:26:43.161Z,960.20
2022-10-18T00:26:53.170Z,960.20
2022-10-18T00:27:03.164Z,960.21
2022-10-18T00:27:13.165Z,960.21
2022-10-18T00:27:23.167Z,960.21
2022-10-18T00:27:33.170Z,960.21
2022-10-18T00:27:43.173Z,960.22
2022-10-18T00:27:53.168Z,960.22
2022-10-18T00:28:03.170Z,960.23
2022-10-18T00:28:13.170Z,960.22
2022-10-18T00:28:23.246Z,960.23
2022-10-18T00:28:33.212Z,960.22
2022-10-18T00:28:43.269Z,960.22
2022-10-18T00:28:53.220Z,960.23
2022-10-18T00:29:03.211Z,960.22
2022-10-18T00:29:13.172Z,960.22
2022-10-18T00:29:23.175Z,960.23
2022-10-18T00:29:33.179Z,960.24
2022-10-18T00:29:43.176Z,960.24
2022-10-18T00:29:53.180Z,960.25
2022-10-18T00:30:03.177Z,960.24
2022-10-18T00:30:13.178Z,960.25
2022-10-18T00:30:23.181Z,960.25
2022-10-18T00:30:33.174Z,960.24
2022-10-18T00:30:43.210Z,960.25
2022-10-18T00:30:53.184Z,960.24
2022-10-18T00:31:03.183Z,960.24
2022-10-18T00:31:13.182Z,960.24
2022-10-18T00:31:23.183Z,960.24
2022-10-18T00:31:33.182Z,960.25
2022-10-18T00:31:43.189Z,960.25
2022-10-18T00:31:53.182Z,960.25
2022-10-18T00:32:03.186Z,960.25
2022-10-18T00:32:13.248Z,960.25
2022-10-18T00:32:23.185Z,960.25
2022-10-18T00:32:33.592Z,960.26
2022-10-18T00:32:43.192Z,960.26
2022-10-18T00:32:53.188Z,960.26
2022-10-18T00:33:03.203Z,960.26
2022-10-18T00:33:13.193Z,960.26
2022-10-18T00:33:23.190Z,960.27
2022-10-18T00:33:33.229Z,960.27
2022-10-18T00:33:43.194Z,960.27
2022-10-18T00:33:53.190Z,960.27
2022-10-18T00:34:03.194Z,960.27
2022-10-18T00:34:13.191Z,960.28
2022-10-18T00:34:23.192Z,960.28
2022-10-18T00:34:33.196Z,960.28
2022-10-18T00:34:43.232Z,960.29
2022-10-18T00:34:53.194Z,960.29
2022-10-18T00:35:03.194Z,960.29
2022-10-18T00:35:13.208Z,960.30
2022-10-18T00:35:23.201Z,960.30
2022-10-18T00:35:33.195Z,960.30
2022-10-18T00:35:43.224Z,960.30
2022-10-18T00:35:53.197Z,960.30
2022-10-18T00:36:03.183Z,960.30
2022-10-18T00:36:13.201Z,960.30
2022-10-18T00:36:23.202Z,960.29
2022-10-18T00:36:33.199Z,960.30
2022-10-18T00:36:43.213Z,960.30
2022-10-18T00:36:53.199Z,960.29
2022-10-18T00:37:03.217Z,960.30
2022-10-18T00:37:13.203Z,960.29
2022-10-18T00:37:23.206Z,960.29
2022-10-18T00:37:33.209Z,960.29
2022-10-18T00:37:43.206Z,960.29
2022-10-18T00:37:53.207Z,960.28
2022-10-18T00:38:03.222Z,960.28
2022-10-18T00:38:13.210Z,960.27
2022-10-18T00:38:23.209Z,960.27
2022-10-18T00:38:33.208Z,960.27
2022-10-18T00:38:43.213Z,960.27
2022-10-18T00:38:53.209Z,960.27
2022-10-18T00:39:03.223Z,960.27
2022-10-18T00:39:13.199Z,960.26
2022-10-18T00:39:23.217Z,960.27
2022-10-18T00:39:33.214Z,960.26
2022-10-18T00:39:43.259Z,960.27
2022-10-18T00:40:03.223Z,960.27
2022-10-18T00:40:13.227Z,960.27
2022-10-18T00:40:23.217Z,960.27
2022-10-18T00:40:33.217Z,960.26
2022-10-18T00:40:43.222Z,960.26
2022-10-18T00:40:53.219Z,960.26
2022-10-18T00:41:03.232Z,960.26
2022-10-18T00:41:13.220Z,960.26
2022-10-18T00:41:23.220Z,960.25
2022-10-18T00:41:33.247Z,960.26
2022-10-18T00:41:43.225Z,960.25
2022-10-18T00:41:53.227Z,960.26
2022-10-18T00:42:03.248Z,960.25
2022-10-18T00:42:13.226Z,960.25
2022-10-18T00:42:23.227Z,960.25
2022-10-18T00:42:33.644Z,960.25
2022-10-18T00:42:43.227Z,960.25
2022-10-18T00:42:53.233Z,960.25
2022-10-18T00:43:03.237Z,960.25
2022-10-18T00:43:13.233Z,960.25
2022-10-18T00:43:23.238Z,960.25
2022-10-18T00:43:33.233Z,960.25
2022-10-18T00:43:43.231Z,960.25
2022-10-18T00:43:53.215Z,960.25
2022-10-18T00:44:03.243Z,960.25
2022-10-18T00:44:13.237Z,960.26
2022-10-18T00:44:23.238Z,960.26
2022-10-18T00:44:33.237Z,960.26
2022-10-18T00:44:43.237Z,960.26
2022-10-18T00:44:53.235Z,960.26
2022-10-18T00:45:03.246Z,960.26
2022-10-18T00:45:13.238Z,960.26
2022-10-18T00:45:23.238Z,960.26
2022-10-18T00:45:33.237Z,960.27
2022-10-18T00:45:43.242Z,960.27
2022-10-18T00:45:53.244Z,960.28
2022-10-18T00:46:03.256Z,960.28
2022-10-18T00:46:13.242Z,960.28
2022-10-18T00:46:23.242Z,960.29
2022-10-18T00:46:33.247Z,960.29
2022-10-18T00:46:43.229Z,960.30
2022-10-18T00:46:53.252Z,960.30
2022-10-18T00:47:03.269Z,960.31
2022-10-18T00:47:13.248Z,960.32
2022-10-18T00:47:23.248Z,960.32
2022-10-18T00:47:33.246Z,960.32
2022-10-18T00:47:43.247Z,960.32
2022-10-18T00:47:53.258Z,960.33
2022-10-18T00:48:03.254Z,960.33
2022-10-18T00:48:13.247Z,960.32
2022-10-18T00:48:23.254Z,960.33
2022-10-18T00:48:33.253Z,960.33
2022-10-18T00:48:43.285Z,960.33
2022-10-18T00:49:03.257Z,960.33
2022-10-18T00:49:13.256Z,960.33
2022-10-18T00:49:23.259Z,960.34
2022-10-18T00:49:33.259Z,960.34
2022-10-18T00:49:43.261Z,960.35
2022-10-18T00:49:53.301Z,960.35
2022-10-18T00:50:03.270Z,960.35
2022-10-18T00:50:13.263Z,960.35
2022-10-18T00:50:23.262Z,960.35
2022-10-18T00:50:33.262Z,960.35
2022-10-18T00:50:43.263Z,960.36
2022-10-18T00:50:53.269Z,960.36
2022-10-18T00:51:03.272Z,960.36
2022-10-18T00:51:13.273Z,960.36
2022-10-18T00:51:23.270Z,960.36
2022-10-18T00:51:33.273Z,960.36
2022-10-18T00:51:43.267Z,960.36
2022-10-18T00:51:53.289Z,960.36
2022-10-18T00:52:03.280Z,960.36
2022-10-18T00:52:13.271Z,960.37
2022-10-18T00:52:23.271Z,960.36
2022-10-18T00:52:33.690Z,960.37
2022-10-18T00:52:43.280Z,960.37
2022-10-18T00:52:53.271Z,960.37
2022-10-18T00:53:03.274Z,960.37
2022-10-18T00:53:13.272Z,960.37
2022-10-18T00:53:23.278Z,960.37
2022-10-18T00:53:33.277Z,960.37
2022-10-18T00:53:43.277Z,960.37
2022-10-18T00:53:53.280Z,960.38
2022-10-18T00:54:03.280Z,960.38
2022-10-18T00:54:13.269Z,960.38
2022-10-18T00:54:23.282Z,960.38
2022-10-18T00:54:33.281Z,960.38
2022-10-18T00:54:43.287Z,960.38
2022-10-18T00:54:53.289Z,960.37
2022-10-18T00:55:03.288Z,960.37
2022-10-18T00:55:13.290Z,960.37
2022-10-18T00:55:23.266Z,960.37
2022-10-18T00:55:33.285Z,960.37
2022-10-18T00:55:43.284Z,960.37
2022-10-18T00:55:53.288Z,960.36
2022-10-18T00:56:03.287Z,960.36
2022-10-18T00:56:13.284Z,960.36
2022-10-18T00:56:23.286Z,960.35
2022-10-18T00:56:33.285Z,960.35
2022-10-18T00:56:43.286Z,960.35
2022-10-18T00:56:53.295Z,960.34
2022-10-18T00:57:03.292Z,960.34
2022-10-18T00:57:13.293Z,960.34
2022-10-18T00:57:23.293Z,960.34
2022-10-18T00:57:33.293Z,960.34
2022-10-18T00:57:43.399Z,960.33
2022-10-18T00:58:03.296Z,960.33
2022-10-18T00:58:13.294Z,960.33
2022-10-18T00:58:23.296Z,960.32
2022-10-18T00:58:33.300Z,960.32
2022-10-18T00:58:43.296Z,960.32
2022-10-18T00:58:53.297Z,960.32
2022-10-18T00:59:03.298Z,960.32
2022-10-18T00:59:13.299Z,960.32
2022-10-18T00:59:23.304Z,960.31
2022-10-18T00:59:33.302Z,960.31
2022-10-18T00:59:43.302Z,960.31
2022-10-18T00:59:53.305Z,960.30
2022-10-18T01:00:03.307Z,960.30
2022-10-18T01:00:13.313Z,960.30
2022-10-18T01:00:23.306Z,960.30
2022-10-18T01:00:33.306Z,960.30
2022-10-18T01:00:43.308Z,960.29
2022-10-18T01:00:53.310Z,960.30
2022-10-18T01:01:03.321Z,960.30
2022-10-18T01:01:13.347Z,960.30
2022-10-18T01:01:25.965Z,960.30
2022-10-18T01:01:34.407Z,960.30
2022-10-18T01:01:43.333Z,960.30
2022-10-18T01:01:53.328Z,960.29
2022-10-18T01:02:03.365Z,960.29
2022-10-18T01:02:13.368Z,960.28
2022-10-18T01:02:23.314Z,960.28
2022-10-18T01:02:33.596Z,960.28
2022-10-18T01:02:43.319Z,960.28
2022-10-18T01:02:53.319Z,960.27
2022-10-18T01:03:03.318Z,960.27
2022-10-18T01:03:13.324Z,960.27
2022-10-18T01:03:23.341Z,960.27
2022-10-18T01:03:33.328Z,960.27
2022-10-18T01:03:43.335Z,960.27
2022-10-18T01:03:53.325Z,960.27
2022-10-18T01:04:03.331Z,960.27
2022-10-18T01:04:13.323Z,960.27
2022-10-18T01:04:23.324Z,960.27
2022-10-18T01:04:33.326Z,960.27
2022-10-18T01:04:43.328Z,960.27
2022-10-18T01:04:53.327Z,960.27
2022-10-18T01:05:03.328Z,960.27
2022-10-18T01:05:13.346Z,960.27
2022-10-18T01:05:23.329Z,960.27
2022-10-18T01:05:33.316Z,960.27
2022-10-18T01:05:43.331Z,960.28
2022-10-18T01:05:53.330Z,960.27
2022-10-18T01:06:03.333Z,960.27
2022-10-18T01:06:13.332Z,960.28
2022-10-18T01:06:23.337Z,960.28
2022-10-18T01:06:33.335Z,960.28
2022-10-18T01:06:43.401Z,960.28
2022-10-18T01:06:53.368Z,960.28
2022-10-18T01:07:03.340Z,960.29
2022-10-18T01:07:13.337Z,960.29
2022-10-18T01:07:23.338Z,960.29
2022-10-18T01:07:33.654Z,960.29
2022-10-18T01:07:43.347Z,960.30
2022-10-18T01:07:53.340Z,960.30
2022-10-18T01:08:03.350Z,960.30
2022-10-18T01:08:13.344Z,960.30
2022-10-18T01:08:23.345Z,960.30
2022-10-18T01:08:33.344Z,960.30
2022-10-18T01:08:43.344Z,960.31
2022-10-18T01:08:53.332Z,960.31
2022-10-18T01:09:03.345Z,960.31
2022-10-18T01:09:13.337Z,960.31
2022-10-18T01:09:23.348Z,960.32
2022-10-18T01:09:33.349Z,960.31
2022-10-18T01:09:43.349Z,960.32
2022-10-18T01:09:53.351Z,960.32
2022-10-18T01:10:03.360Z,960.32
2022-10-18T01:10:13.343Z,960.31
2022-10-18T01:10:23.355Z,960.32
2022-10-18T01:10:33.356Z,960.31
2022-10-18T01:10:43.385Z,960.32
2022-10-18T01:10:53.358Z,960.32
2022-10-18T01:11:03.360Z,960.32
2022-10-18T01:11:13.362Z,960.32
2022-10-18T01:11:23.359Z,960.32
2022-10-18T01:11:33.361Z,960.32
2022-10-18T01:11:43.362Z,960.31
2022-10-18T01:11:53.363Z,960.31
2022-10-18T01:12:03.364Z,960.31
2022-10-18T01:12:13.351Z,960.31
2022-10-18T01:12:23.367Z,960.31
2022-10-18T01:12:33.366Z,960.30
2022-10-18T01:12:43.370Z,960.30
2022-10-18T01:12:53.365Z,960.30
2022-10-18T01:13:03.369Z,960.29
2022-10-18T01:13:13.368Z,960.29
2022-10-18T01:13:25.721Z,960.28
2022-10-18T01:13:33.370Z,960.28
2022-10-18T01:13:43.371Z,960.28
2022-10-18T01:13:53.370Z,960.28
2022-10-18T01:14:03.371Z,960.27
2022-10-18T01:14:13.367Z,960.27
2022-10-18T01:14:23.371Z,960.27
2022-10-18T01:14:33.370Z,960.27
2022-10-18T01:14:43.390Z,960.27
2022-10-18T01:14:53.374Z,960.27
2022-10-18T01:15:03.382Z,960.26
2022-10-18T01:15:13.381Z,960.26
2022-10-18T01:15:23.374Z,960.26
2022-10-18T01:15:33.374Z,960.26
2022-10-18T01:15:43.440Z,960.26
2022-10-18T01:15:53.417Z,960.25
2022-10-18T01:16:03.381Z,960.25
2022-10-18T01:16:13.376Z,960.25
2022-10-18T01:16:23.380Z,960.25
2022-10-18T01:16:33.385Z,960.24
2022-10-18T01:16:43.379Z,960.24
2022-10-18T01:16:53.380Z,960.24
2022-10-18T01:17:03.384Z,960.24
2022-10-18T01:17:13.384Z,960.24
2022-10-18T01:17:23.368Z,960.24
2022-10-18T01:17:33.565Z,960.24
2022-10-18T01:17:43.389Z,960.25
2022-10-18T01:17:53.387Z,960.25
2022-10-18T01:18:03.390Z,960.25
2022-10-18T01:18:13.401Z,960.24
2022-10-18T01:18:23.392Z,960.25
2022-10-18T01:18:33.392Z,960.25
2022-10-18T01:18:43.635Z,960.25
2022-10-18T01:18:53.395Z,960.25
2022-10-18T01:19:03.397Z,960.25
2022-10-18T01:19:13.393Z,960.25
2022-10-18T01:19:23.393Z,960.26
2022-10-18T01:19:33.397Z,960.26
2022-10-18T01:19:43.396Z,960.26
2022-10-18T01:19:53.438Z,960.26
2022-10-18T01:20:03.407Z,960.26
2022-10-18T01:20:13.386Z,960.26
2022-10-18T01:20:23.395Z,960.27
2022-10-18T01:20:33.401Z,960.26
2022-10-18T01:20:43.402Z,960.27
2022-10-18T01:20:53.400Z,960.27
2022-10-18T01:21:03.402Z,960.27
2022-10-18T01:21:13.401Z,960.28
2022-10-18T01:21:23.405Z,960.28
2022-10-18T01:21:33.402Z,960.28
2022-10-18T01:21:43.402Z,960.29
2022-10-18T01:21:53.412Z,960.29
2022-10-18T01:22:03.407Z,960.29
2022-10-18T01:22:13.403Z,960.30
2022-10-18T01:22:23.405Z,960.29
2022-10-18T01:22:33.411Z,960.30
2022-10-18T01:22:43.406Z,960.30
2022-10-18T01:22:53.409Z,960.30
2022-10-18T01:23:03.413Z,960.30
2022-10-18T01:23:13.409Z,960.30
2022-10-18T01:23:23.412Z,960.29
2022-10-18T01:23:33.419Z,960.30
2022-10-18T01:23:43.398Z,960.30
2022-10-18T01:23:53.415Z,960.29
2022-10-18T01:24:03.424Z,960.29
2022-10-18T01:24:13.414Z,960.29
2022-10-18T01:24:23.415Z,960.28
2022-10-18T01:24:33.421Z,960.28
2022-10-18T01:24:43.422Z,960.28
2022-10-18T01:24:53.445Z,960.27
2022-10-18T01:25:13.422Z,960.26
2022-10-18T01:25:23.424Z,960.26
2022-10-18T01:25:33.427Z,960.26
2022-10-18T01:25:43.422Z,960.26
2022-10-18T01:25:53.425Z,960.25
2022-10-18T01:26:03.432Z,960.25
2022-10-18T01:26:13.409Z,960.25
2022-10-18T01:26:23.427Z,960.25
2022-10-18T01:26:33.426Z,960.24
2022-10-18T01:26:43.424Z,960.24
2022-10-18T01:26:53.444Z,960.24
2022-10-18T01:27:03.426Z,960.24
2022-10-18T01:27:13.427Z,960.24
2022-10-18T01:27:23.431Z,960.23
2022-10-18T01:27:33.708Z,960.23
2022-10-18T01:27:43.427Z,960.22
2022-10-18T01:27:53.428Z,960.23
2022-10-18T01:28:03.432Z,960.22
2022-10-18T01:28:13.431Z,960.22
2022-10-18T01:28:23.472Z,960.21
2022-10-18T01:28:33.473Z,960.21
2022-10-18T01:28:43.478Z,960.21
2022-10-18T01:28:53.480Z,960.21
2022-10-18T01:29:03.483Z,960.21
2022-10-18T01:29:13.436Z,960.21
2022-10-18T01:29:23.438Z,960.20
2022-10-18T01:29:33.440Z,960.20
2022-10-18T01:29:43.439Z,960.20
2022-10-18T01:29:53.442Z,960.20
2022-10-18T01:30:03.440Z,960.19
2022-10-18T01:30:13.443Z,960.20
2022-10-18T01:30:23.445Z,960.19
2022-10-18T01:30:33.470Z,960.19
2022-10-18T01:30:43.444Z,960.19
2022-10-18T01:30:53.445Z,960.18
2022-10-18T01:31:03.445Z,960.18
2022-10-18T01:31:13.447Z,960.18
2022-10-18T01:31:23.448Z,960.18
2022-10-18T01:31:33.448Z,960.18
2022-10-18T01:31:43.448Z,960.18
2022-10-18T01:31:56.366Z,960.18
2022-10-18T01:32:03.452Z,960.18
2022-10-18T01:32:13.452Z,960.18
2022-10-18T01:32:23.451Z,960.17
2022-10-18T01:32:33.450Z,960.17
2022-10-18T01:32:43.452Z,960.17
2022-10-18T01:32:53.452Z,960.17
2022-10-18T01:33:03.455Z,960.17
2022-10-18T01:33:13.459Z,960.17
2022-10-18T01:33:23.455Z,960.17
2022-10-18T01:33:33.456Z,960.17
2022-10-18T01:33:43.463Z,960.17
2022-10-18T01:33:53.482Z,960.17
2022-10-18T01:34:03.461Z,960.17
2022-10-18T01:34:13.463Z,960.17
2022-10-18T01:34:23.464Z,960.17
2022-10-18T01:34:33.460Z,960.17
2022-10-18T01:34:43.460Z,960.17
2022-10-18T01:34:53.468Z,960.17
2022-10-18T01:35:03.461Z,960.17
2022-10-18T01:35:13.469Z,960.17
2022-10-18T01:35:23.465Z,960.17
2022-10-18T01:35:33.465Z,960.17
2022-10-18T01:35:43.464Z,960.17
2022-10-18T01:35:53.467Z,960.17
2022-10-18T01:36:03.467Z,960.17
2022-10-18T01:36:13.469Z,960.18
2022-10-18T01:36:23.470Z,960.17
2022-10-18T01:36:33.469Z,960.17
2022-10-18T01:36:43.473Z,960.17
2022-10-18T01:36:53.473Z,960.17
2022-10-18T01:37:03.474Z,960.17
2022-10-18T01:37:13.478Z,960.17
2022-10-18T01:37:23.483Z,960.17
2022-10-18T01:37:33.788Z,960.17
2022-10-18T01:37:43.477Z,960.17
2022-10-18T01:37:53.478Z,960.16
2022-10-18T01:38:03.480Z,960.16
2022-10-18T01:38:13.479Z,960.16
2022-10-18T01:38:23.490Z,960.16
2022-10-18T01:38:33.493Z,960.15
2022-10-18T01:38:43.483Z,960.15
2022-10-18T01:38:53.489Z,960.14
2022-10-18T01:39:03.485Z,960.14
2022-10-18T01:39:13.488Z,960.13
2022-10-18T01:39:23.485Z,960.14
2022-10-18T01:39:33.487Z,960.13
2022-10-18T01:39:43.489Z,960.13
2022-10-18T01:39:53.490Z,960.13
2022-10-18T01:40:03.496Z,960.12
2022-10-18T01:40:13.492Z,960.12
2022-10-18T01:40:23.497Z,960.12
2022-10-18T01:40:33.477Z,960.12
2022-10-18T01:40:43.492Z,960.12
2022-10-18T01:40:53.491Z,960.12
2022-10-18T01:41:03.493Z,960.11
2022-10-18T01:41:15.784Z,960.11
2022-10-18T01:41:23.491Z,960.11
2022-10-18T01:41:33.493Z,960.11
2022-10-18T01:41:43.493Z,960.11
2022-10-18T01:41:53.481Z,960.11
2022-10-18T01:42:03.497Z,960.11
2022-10-18T01:42:13.511Z,960.11
2022-10-18T01:42:23.496Z,960.10
2022-10-18T01:42:33.497Z,960.11
2022-10-18T01:42:43.497Z,960.11
2022-10-18T01:42:53.514Z,960.11
2022-10-18T01:43:03.510Z,960.11
2022-10-18T01:43:13.505Z,960.11
2022-10-18T01:43:23.501Z,960.11
2022-10-18T01:43:33.485Z,960.11
2022-10-18T01:43:43.500Z,960.11
2022-10-18T01:43:53.500Z,960.11
2022-10-18T01:44:03.501Z,960.12
2022-10-18T01:44:13.509Z,960.12
2022-10-18T01:44:23.510Z,960.12
2022-10-18T01:44:33.513Z,960.12
2022-10-18T01:44:43.510Z,960.12
2022-10-18T01:44:53.509Z,960.13
2022-10-18T01:45:03.508Z,960.13
2022-10-18T01:45:13.514Z,960.13
2022-10-18T01:45:23.513Z,960.13
2022-10-18T01:45:33.507Z,960.13
2022-10-18T01:45:43.512Z,960.13
2022-10-18T01:45:53.512Z,960.13
2022-10-18T01:46:03.514Z,960.13
2022-10-18T01:46:13.513Z,960.13
2022-10-18T01:46:23.515Z,960.13
2022-10-18T01:46:33.515Z,960.13
2022-10-18T01:46:43.515Z,960.14
2022-10-18T01:46:53.515Z,960.14
2022-10-18T01:47:03.517Z,960.14
2022-10-18T01:47:13.520Z,960.14
2022-10-18T01:47:23.519Z,960.14
2022-10-18T01:47:33.947Z,960.15
2022-10-18T01:47:43.520Z,960.15
2022-10-18T01:47:53.521Z,960.15
2022-10-18T01:48:03.522Z,960.15
2022-10-18T01:48:13.520Z,960.15
2022-10-18T01:48:23.523Z,960.15
2022-10-18T01:48:33.528Z,960.15
2022-10-18T01:48:43.522Z,960.15
2022-10-18T01:48:53.526Z,960.15
2022-10-18T01:49:03.526Z,960.15
2022-10-18T01:49:13.523Z,960.15
2022-10-18T01:49:23.525Z,960.15
2022-10-18T01:49:33.531Z,960.15
2022-10-18T01:49:43.526Z,960.15
2022-10-18T01:49:53.513Z,960.15
2022-10-18T01:50:03.534Z,960.14
2022-10-18T01:50:13.532Z,960.14
2022-10-18T01:50:23.532Z,960.14
2022-10-18T01:50:33.529Z,960.14
2022-10-18T01:50:43.531Z,960.14
2022-10-18T01:50:53.532Z,960.14
2022-10-18T01:51:03.533Z,960.14
2022-10-18T01:51:13.544Z,960.14
2022-10-18T01:51:23.538Z,960.13
2022-10-18T01:51:33.536Z,960.13
2022-10-18T01:51:43.537Z,960.13
2022-10-18T01:51:53.620Z,960.13
2022-10-18T01:52:03.643Z,960.13
2022-10-18T01:52:13.540Z,960.14
2022-10-18T01:52:23.538Z,960.14
2022-10-18T01:52:33.979Z,960.14
2022-10-18T01:52:43.550Z,960.13
2022-10-18T01:52:53.545Z,960.14
2022-10-18T01:53:03.542Z,960.14
2022-10-18T01:53:13.534Z,960.14
2022-10-18T01:53:23.547Z,960.14
2022-10-18T01:53:33.551Z,960.14
2022-10-18T01:53:43.531Z,960.14
2022-10-18T01:53:53.545Z,960.14
2022-10-18T01:54:03.547Z,960.14
2022-10-18T01:54:13.552Z,960.14
2022-10-18T01:54:23.535Z,960.14
2022-10-18T01:54:33.555Z,960.14
2022-10-18T01:54:43.536Z,960.14
2022-10-18T01:54:53.552Z,960.14
2022-10-18T01:55:03.556Z,960.13
2022-10-18T01:55:13.555Z,960.14
2022-10-18T01:55:23.552Z,960.14
2022-10-18T01:55:33.544Z,960.14
2022-10-18T01:55:43.558Z,960.14
2022-10-18T01:55:53.552Z,960.14
2022-10-18T01:56:03.560Z,960.13
2022-10-18T01:56:13.541Z,960.13
2022-10-18T01:56:23.558Z,960.13
2022-10-18T01:56:33.556Z,960.13
2022-10-18T01:56:43.558Z,960.13
2022-10-18T01:56:53.558Z,960.12
2022-10-18T01:57:03.561Z,960.12
2022-10-18T01:57:13.561Z,960.12
2022-10-18T01:57:23.561Z,960.12
2022-10-18T01:57:33.558Z,960.12
2022-10-18T01:57:43.561Z,960.12
2022-10-18T01:57:53.545Z,960.12
2022-10-18T01:58:03.561Z,960.12
2022-10-18T01:58:13.561Z,960.12
2022-10-18T01:58:23.568Z,960.13
2022-10-18T01:58:33.548Z,960.13
2022-10-18T01:58:43.564Z,960.13
2022-10-18T01:58:53.567Z,960.13
2022-10-18T01:59:03.567Z,960.13
2022-10-18T01:59:13.553Z,960.13
2022-10-18T01:59:23.564Z,960.13
2022-10-18T01:59:33.571Z,960.14
2022-10-18T01:59:43.564Z,960.13
2022-10-18T01:59:53.566Z,960.13
2022-10-18T02:00:03.567Z,960.13
2022-10-18T02:00:13.557Z,960.13
2022-10-18T02:00:23.558Z,960.13
2022-10-18T02:00:33.570Z,960.13
2022-10-18T02:00:43.571Z,960.13
2022-10-18T02:00:53.573Z,960.13
2022-10-18T02:01:03.624Z,960.13
2022-10-18T02:01:13.582Z,960.13
2022-10-18T02:01:23.574Z,960.13
2022-10-18T02:01:33.579Z,960.13
2022-10-18T02:01:43.578Z,960.13
2022-10-18T02:01:53.576Z,960.13
2022-10-18T02:02:03.564Z,960.13
2022-10-18T02:02:13.565Z,960.13
2022-10-18T02:02:23.586Z,960.13
2022-10-18T02:02:33.805Z,960.13
2022-10-18T02:02:43.567Z,960.13
2022-10-18T02:02:53.582Z,960.13
2022-10-18T02:03:03.584Z,960.13
2022-10-18T02:03:13.567Z,960.13
2022-10-18T02:03:23.571Z,960.13
2022-10-18T02:03:33.590Z,960.13
2022-10-18T02:03:43.586Z,960.13
2022-10-18T02:03:53.590Z,960.13
2022-10-18T02:04:03.586Z,960.13
2022-10-18T02:04:13.591Z,960.13
2022-10-18T02:04:23.596Z,960.13
2022-10-18T02:04:33.589Z,960.13
2022-10-18T02:04:43.589Z,960.13
2022-10-18T02:04:53.589Z,960.13
2022-10-18T02:05:03.588Z,960.13
2022-10-18T02:05:13.595Z,960.14
2022-10-18T02:05:23.601Z,960.14
2022-10-18T02:05:33.597Z,960.14
2022-10-18T02:05:43.596Z,960.13